»·PEaware :: N8295H KBUR-KLAS

N8295H :: KBUR-KLAS

FLIGHT INFORMATION

Flight Status: Arrived
Operator: Privately registered:
United States
More flights under this callsign
Pilot: Andrew R. (27652)
Aircraft: PIPER PA-28 CHEROKEE ARCHER
(P28A)
More flights by this aircraft type
Origin: KBUR Bob Hope-Burbank
United States
Destination: KLAS McCarran Intl
United States
More flights between these airports :: More routes between these airports
Route: VNY3 DAG CRESO4
File this flight plan on PilotEdge
Remarks:
Altitude:
(Current/Filed)
11,000ft
Speed:
(Current/Filed)
100kts
Departed: 17-Feb-21 06:45 PM
Arrived: 17-Feb-21 08:30 PM
Distance/Time
Traveled:
193nm/1:45
Distance/Time
To Go:
Arrived

Flight Plot

Page will automatically refresh every two minutes.

Flight plan parsing failed; only flown route is shown


Map Options




Map Legend


Flown Route
Filed Route
Departure Airport
Arrival Airport
Navaid (VOR, NDB)
Fix

Horizontal Profiles

Position Reports

Time Latitude Longitude Heading Altitude Ground
Speed
17-Feb-21 18:18 34.200258 -118.362797 220 726ft 0kts
17-Feb-21 18:19 34.200258 -118.362797 220 726ft 0kts
17-Feb-21 18:20 34.200258 -118.362797 220 726ft 0kts
17-Feb-21 18:21 34.200258 -118.362797 220 726ft 0kts
17-Feb-21 18:22 34.200258 -118.362797 220 726ft 0kts
17-Feb-21 18:23 34.200258 -118.362797 220 726ft 0kts
17-Feb-21 18:24 34.200258 -118.362797 220 726ft 0kts
17-Feb-21 18:25 34.200258 -118.362797 220 726ft 0kts
17-Feb-21 18:26 34.200258 -118.362797 220 726ft 0kts
17-Feb-21 18:27 34.200258 -118.362797 220 726ft 0kts
17-Feb-21 18:28 34.200258 -118.362797 220 726ft 0kts
17-Feb-21 18:29 34.200258 -118.362797 220 726ft 0kts
17-Feb-21 18:30 34.200258 -118.362797 220 726ft 0kts
17-Feb-21 18:31 34.200258 -118.362797 220 726ft 0kts
17-Feb-21 18:32 34.200258 -118.362797 220 726ft 0kts
17-Feb-21 18:33 34.200258 -118.362797 220 726ft 0kts
17-Feb-21 18:34 34.200258 -118.362797 220 726ft 0kts
17-Feb-21 18:35 34.200076 -118.363641 267 725ft 11kts
17-Feb-21 18:36 34.198935 -118.362614 95 721ft 14kts
17-Feb-21 18:37 34.198387 -118.357988 176 711ft 12kts
17-Feb-21 18:38 34.196187 -118.357038 166 705ft 12kts
17-Feb-21 18:39 34.194733 -118.356737 159 701ft 0kts
17-Feb-21 18:40 34.194734 -118.356737 159 701ft 0kts
17-Feb-21 18:41 34.194734 -118.356737 159 701ft 0kts
17-Feb-21 18:42 34.194734 -118.356737 159 701ft 0kts
17-Feb-21 18:43 34.194734 -118.356737 159 701ft 0kts
17-Feb-21 18:44 34.195474 -118.355827 345 701ft 46kts
17-Feb-21 18:45 34.216702 -118.361196 342 1250ft 83kts
17-Feb-21 18:46 34.226103 -118.384778 307 1960ft 85kts
17-Feb-21 18:47 34.233583 -118.410740 283 2621ft 84kts
17-Feb-21 18:48 34.240047 -118.437899 283 3314ft 84kts
17-Feb-21 18:49 34.246465 -118.465464 291 4034ft 86kts
17-Feb-21 18:50 34.264274 -118.484500 320 4724ft 86kts
17-Feb-21 18:51 34.283884 -118.502201 322 5349ft 88kts
17-Feb-21 18:52 34.305626 -118.508137 41 5936ft 88kts
17-Feb-21 18:53 34.322649 -118.486156 57 6481ft 90kts
17-Feb-21 18:54 34.338566 -118.462773 37 7002ft 88kts
17-Feb-21 18:55 34.358652 -118.444163 16 7453ft 93kts
17-Feb-21 18:56 34.376837 -118.424962 47 7978ft 85kts
17-Feb-21 18:57 34.395129 -118.405763 49 8449ft 89kts
17-Feb-21 18:58 34.415525 -118.386641 53 8853ft 96kts
17-Feb-21 18:59 34.435442 -118.363774 63 9204ft 103kts
17-Feb-21 19:00 34.457484 -118.338384 60 9555ft 115kts
17-Feb-21 19:01 34.478942 -118.308291 71 9872ft 122kts
17-Feb-21 19:02 34.500059 -118.272938 67 10168ft 136kts
17-Feb-21 19:03 34.523024 -118.234003 59 10476ft 147kts
17-Feb-21 19:04 34.548323 -118.192770 49 10795ft 155kts
17-Feb-21 19:05 34.574673 -118.150809 38 11029ft 156kts
17-Feb-21 19:06 34.602634 -118.110234 39 11042ft 157kts
17-Feb-21 19:07 34.628733 -118.066323 63 10978ft 165kts
17-Feb-21 19:08 34.643198 -118.014327 91 10972ft 162kts
17-Feb-21 19:09 34.646755 -117.960522 102 10946ft 159kts
17-Feb-21 19:10 34.649203 -117.906970 98 10895ft 159kts
17-Feb-21 19:11 34.654239 -117.853693 94 10860ft 158kts
17-Feb-21 19:12 34.659920 -117.801271 94 10882ft 152kts
17-Feb-21 19:13 34.668041 -117.750066 75 10917ft 157kts
17-Feb-21 19:14 34.680811 -117.698574 77 10980ft 158kts
17-Feb-21 19:15 34.693422 -117.647267 77 11072ft 159kts
17-Feb-21 19:16 34.706571 -117.593684 76 10988ft 168kts
17-Feb-21 19:17 34.720498 -117.538838 75 10895ft 169kts
17-Feb-21 19:18 34.735050 -117.485015 75 10898ft 165kts
17-Feb-21 19:19 34.749137 -117.431868 75 10926ft 165kts
17-Feb-21 19:20 34.763039 -117.378587 75 10956ft 165kts
17-Feb-21 19:21 34.777059 -117.325264 75 10951ft 165kts
17-Feb-21 19:22 34.790870 -117.271907 76 10913ft 165kts
17-Feb-21 19:23 34.804730 -117.218846 78 10885ft 164kts
17-Feb-21 19:25 34.818509 -117.166037 79 10862ft 163kts
17-Feb-21 19:26 34.831735 -117.113546 79 10866ft 161kts
17-Feb-21 19:27 34.844789 -117.061231 79 10883ft 161kts
17-Feb-21 19:28 34.857528 -117.008877 79 10913ft 161kts
17-Feb-21 19:29 34.869012 -116.956241 80 10960ft 161kts
17-Feb-21 19:30 34.881109 -116.903595 77 11012ft 161kts
17-Feb-21 19:31 34.894471 -116.850610 76 10974ft 168kts
17-Feb-21 19:32 34.908294 -116.796161 76 10941ft 166kts
17-Feb-21 19:33 34.922005 -116.742366 76 10931ft 166kts
17-Feb-21 19:34 34.935813 -116.688446 76 10930ft 166kts
17-Feb-21 19:35 34.949616 -116.634664 76 10934ft 166kts
17-Feb-21 19:36 34.964944 -116.581320 57 10904ft 169kts
17-Feb-21 19:37 34.984925 -116.530403 62 10940ft 167kts
17-Feb-21 19:38 35.005658 -116.479751 59 10963ft 166kts
17-Feb-21 19:39 35.027124 -116.429857 58 10986ft 166kts
17-Feb-21 19:40 35.049286 -116.380237 56 11013ft 166kts
17-Feb-21 19:41 35.072507 -116.330979 56 10968ft 169kts
17-Feb-21 19:41 35.091801 -116.289712 56 10908ft 167kts
17-Feb-21 19:43 35.117769 -116.231935 61 10868ft 162kts
17-Feb-21 19:44 35.137613 -116.183439 63 10925ft 164kts
17-Feb-21 19:44 35.154431 -116.142444 60 11003ft 163kts
17-Feb-21 19:46 35.179642 -116.084349 59 10895ft 164kts
17-Feb-21 19:46 35.197479 -116.044225 58 10962ft 156kts
17-Feb-21 19:47 35.218525 -115.996318 57 11003ft 160kts
17-Feb-21 19:49 35.243605 -115.939902 57 11036ft 163kts
17-Feb-21 19:50 35.259692 -115.905945 58 10961ft 114kts
17-Feb-21 19:51 35.274441 -115.876066 61 10856ft 97kts
17-Feb-21 19:51 35.284873 -115.851299 64 10929ft 98kts
17-Feb-21 19:52 35.296970 -115.820183 62 10917ft 101kts
17-Feb-21 19:53 35.310472 -115.789609 51 10890ft 103kts
17-Feb-21 19:54 35.329907 -115.764239 46 10903ft 101kts
17-Feb-21 19:55 35.349338 -115.738989 46 10903ft 102kts
17-Feb-21 19:56 35.368827 -115.713744 46 10904ft 102kts
17-Feb-21 19:57 35.388416 -115.688503 46 10680ft 102kts
17-Feb-21 19:58 35.408104 -115.662665 47 10160ft 104kts
17-Feb-21 19:59 35.427126 -115.636831 48 9897ft 101kts
17-Feb-21 20:00 35.445351 -115.610923 48 9893ft 100kts
17-Feb-21 20:01 35.463641 -115.585003 48 9886ft 100kts
17-Feb-21 20:02 35.481946 -115.559144 48 9879ft 100kts
17-Feb-21 20:03 35.500319 -115.533270 48 9872ft 100kts
17-Feb-21 20:04 35.518756 -115.507387 48 9866ft 100kts
17-Feb-21 20:05 35.537178 -115.481608 48 9860ft 100kts
17-Feb-21 20:06 35.555761 -115.455994 47 9855ft 100kts
17-Feb-21 20:07 35.574599 -115.430705 46 9845ft 100kts
17-Feb-21 20:08 35.593471 -115.405452 46 9832ft 100kts
17-Feb-21 20:09 35.612430 -115.380159 46 9832ft 100kts
17-Feb-21 20:10 35.631335 -115.355014 46 9831ft 100kts
17-Feb-21 20:11 35.652261 -115.333556 358 9653ft 105kts
17-Feb-21 20:12 35.679969 -115.338911 351 9180ft 104kts
17-Feb-21 20:13 35.708312 -115.344837 351 8620ft 106kts
17-Feb-21 20:14 35.738264 -115.351145 351 7629ft 110kts
17-Feb-21 20:15 35.767704 -115.356460 353 6649ft 111kts
17-Feb-21 20:16 35.794398 -115.350466 35 6012ft 99kts
17-Feb-21 20:17 35.817301 -115.332616 32 5876ft 97kts
17-Feb-21 20:18 35.840246 -115.314337 33 5874ft 100kts
17-Feb-21 20:19 35.863610 -115.295018 35 5820ft 101kts
17-Feb-21 20:20 35.887902 -115.277784 24 5773ft 101kts
17-Feb-21 20:21 35.913671 -115.264180 25 5736ft 100kts
17-Feb-21 20:22 35.938967 -115.248930 25 5608ft 104kts
17-Feb-21 20:23 35.966437 -115.232585 29 4953ft 113kts
17-Feb-21 20:24 35.994570 -115.216968 26 4146ft 107kts
17-Feb-21 20:25 36.019831 -115.202248 25 3637ft 104kts
17-Feb-21 20:26 36.045378 -115.187500 24 2992ft 83kts
17-Feb-21 20:27 36.064549 -115.176593 26 2564ft 68kts
17-Feb-21 20:28 36.080404 -115.167468 23 2161ft 42kts
17-Feb-21 20:29 36.089149 -115.162963 316 2127ft 17kts
17-Feb-21 20:30 36.089425 -115.163564 295 2128ft 0kts
17-Feb-21 20:31 36.088037 -115.165494 204 2138ft 27kts
17-Feb-21 20:32 36.083209 -115.168257 204 2159ft 20kts
17-Feb-21 20:33 36.081629 -115.170942 349 2167ft 0kts
17-Feb-21 20:34 36.081629 -115.170942 349 2167ft 0kts
17-Feb-21 20:35 36.081629 -115.170942 349 2167ft 0kts
17-Feb-21 20:36 36.081629 -115.170942 349 2167ft 0kts
17-Feb-21 20:37 36.081629 -115.170942 349 2167ft 0kts
17-Feb-21 20:38 36.081629 -115.170942 349 2167ft 0kts
17-Feb-21 20:39 36.081629 -115.170942 349 2167ft 0kts
17-Feb-21 20:40 36.081629 -115.170942 349 2167ft 0kts
17-Feb-21 20:41 36.081629 -115.170942 349 2167ft 0kts
17-Feb-21 20:42 36.081629 -115.170942 349 2167ft 0kts
17-Feb-21 20:43 36.081629 -115.170942 349 2167ft 0kts

Navigation Log

Ident Type
Flight plan parsing failed, navigation log unavailable